Ringling, MT (59642)

06:15 AM MST on Pebruari 20, 2017 (GMT -0700)
Drone Mountain | | Change Station

Elev 5469 ft 46.03 °N, 110.80 °W | Updated 28 seconds ago

Mendung Merata
Mendung Merata
27.7 °F
Feels Like 28 °F
N
2.2
Angin Variable Angin from Arah Barat

Siang Ini
High -- | Low -- °F
--% Chance of Precip.
Yesterday
High -- | Low -- °F
Precip. -- Inch
Tekanan 29.85 Inch
Jarak Pandang 10.0 Mil
Awan Berawan 9000 ft
Angin Dingin 28 °F
Titik Embun 21 °F
Kelembaban 76%
Rainfall 0.00 Inch
Snow Depth Not available.
7:17 AM 5:56 PM
Waning Crescent, 34% visible
METAR KBZN 201256Z 00000KT 10SM OVC090 M01/M05 A2978 RMK AO2 SLP106 T10061050
Tekanan 29.85 Inch
Jarak Pandang 10.0 Mil
Awan Berawan 9000 ft
Angin Dingin 28 °F
Titik Embun 21 °F
Kelembaban 76%
Rainfall 0.00 Inch
Snow Depth Not available.
7:17 AM 5:56 PM
Waning Crescent, 34% visible
METAR KBZN 201256Z 00000KT 10SM OVC090 M01/M05 A2978 RMK AO2 SLP106 T10061050

Get Your Daily Forecast Email!

Thanks for signing up!

Be on the lookout for a verification email in your inbox.

You'll start receiving the daily forecast at 8 AM.

×

10-Day Weather Forecast

Almanac

Astronomi

Feb. 20, 2017 Rise Set
Actual Time
Civil Twilight
Nautical Twilight
Astronomical Twilight
Moon
Length Of Visible Light
Lama Satu Hari
Tomorrow will be .
, % of the Moon is Illuminated

Today's Extremes

State Highs State Lows

Community

WunderPhotos

Upload Photos

1,962,540 photos uploaded!

WunderBlog® & News

Nearby

Air Quality

  Air Quality AQ Index Pollutant
Not available.

Snow Depth

Station Depth Elevation

Earthquake Activity

City Distance Mag. Time & Date
Minimum magnitude displayed is 2.5.

Coastal Water Temperatures

Lokasi Temperatur

Stations

Nearby Weather Stations

Station Location Temp Angin Dingin Titik Embun Kelembaban Angin Precip. Elev Telah Diperbaharui Type
                   

Watches & Warnings

There are currently no watches in effect.